Time;durP1;ratioP1;P1;durP2;ratioP2;P2;SDS_P1;SDS_P2;PMS_P1;PMS_P2;Temp;Humidity;BMP_temperature;BMP_pressure;BME280_temperature;BME280_humidity;BME280_pressure;Samples;Min_cycle;Max_cycle;Signal;HPM_P1;HPM_P2
2021/05/20 00:00:18;;;;;;;0.40;0.10;;;14.60;65.50;;;;;;5020418;28;20229;-79
2021/05/20 00:02:45;;;;;;;0.15;0.03;;;14.50;65.60;;;;;;5001195;28;20034;-79
2021/05/20 00:05:11;;;;;;;0.10;0.00;;;14.50;65.70;;;;;;4998845;28;20037;-79
2021/05/20 00:07:38;;;;;;;0.20;0.10;;;14.50;65.80;;;;;;5007844;28;20037;-79
2021/05/20 00:10:05;;;;;;;0.10;0.00;;;14.40;65.90;;;;;;5009388;28;20037;-79
2021/05/20 00:12:32;;;;;;;0.13;0.05;;;14.40;65.90;;;;;;5023600;28;20038;-79
2021/05/20 00:14:58;;;;;;;0.15;0.08;;;14.40;65.90;;;;;;5000060;28;20030;-78
2021/05/20 00:17:24;;;;;;;0.00;0.00;;;14.40;65.90;;;;;;5002992;28;20034;-79
2021/05/20 00:19:50;;;;;;;2.38;0.22;;;14.40;66.00;;;;;;4976514;28;20391;-79
2021/05/20 00:22:16;;;;;;;0.20;0.00;;;14.40;66.10;;;;;;5011748;28;20491;-78
2021/05/20 00:24:42;;;;;;;0.90;0.08;;;14.40;66.10;;;;;;4999502;28;20026;-79
2021/05/20 00:27:08;;;;;;;0.10;0.00;;;14.30;66.20;;;;;;4999119;28;20050;-78
2021/05/20 00:29:34;;;;;;;0.00;0.00;;;14.30;66.20;;;;;;5007408;28;20022;-79
2021/05/20 00:32:00;;;;;;;0.30;0.00;;;14.20;66.10;;;;;;5008417;28;20026;-79
2021/05/20 00:34:26;;;;;;;0.20;0.00;;;14.20;66.20;;;;;;5009467;28;20257;-79
2021/05/20 00:36:53;;;;;;;0.00;0.00;;;14.20;66.30;;;;;;5008944;28;20030;-78
2021/05/20 00:39:19;;;;;;;1.73;0.08;;;14.20;66.40;;;;;;5008636;28;20395;-79
2021/05/20 00:41:45;;;;;;;0.47;0.05;;;14.10;66.40;;;;;;5021918;28;20041;-78
2021/05/20 00:44:11;;;;;;;0.00;0.00;;;14.20;66.60;;;;;;5006777;28;20482;-80
2021/05/20 00:46:37;;;;;;;0.30;0.10;;;14.20;66.50;;;;;;5007221;28;20046;-79
2021/05/20 00:49:09;;;;;;;0.52;0.30;;;14.10;66.60;;;;;;5031828;28;20034;-79
2021/05/20 00:51:37;;;;;;;0.20;0.00;;;14.20;66.60;;;;;;5008828;28;20057;-79
2021/05/20 00:54:04;;;;;;;0.10;0.00;;;14.20;66.60;;;;;;4989947;28;20053;-79
2021/05/20 00:56:30;;;;;;;0.28;0.13;;;14.20;66.60;;;;;;4999093;28;20041;-79
2021/05/20 00:58:56;;;;;;;0.57;0.20;;;14.10;66.60;;;;;;5020357;28;20041;-79
2021/05/20 01:01:23;;;;;;;0.10;0.00;;;14.10;66.60;;;;;;4988004;28;20027;-79
2021/05/20 01:03:50;;;;;;;0.10;0.00;;;14.10;66.70;;;;;;5026571;28;20050;-79
2021/05/20 01:06:16;;;;;;;0.25;0.00;;;14.20;66.80;;;;;;5006696;28;20054;-79
2021/05/20 01:08:42;;;;;;;0.10;0.10;;;14.10;66.70;;;;;;5032663;28;20034;-79
2021/05/20 01:11:08;;;;;;;2.67;0.32;;;14.10;66.80;;;;;;4999356;28;20037;-79
2021/05/20 01:13:34;;;;;;;0.00;0.00;;;14.10;66.80;;;;;;5009817;28;20030;-79
2021/05/20 01:16:00;;;;;;;0.00;0.00;;;14.10;66.90;;;;;;5040564;28;20058;-79
2021/05/20 01:18:26;;;;;;;1.00;0.03;;;14.00;66.90;;;;;;5010523;28;20379;-79
2021/05/20 01:20:52;;;;;;;0.20;0.00;;;14.00;67.00;;;;;;5011538;28;20099;-79
2021/05/20 01:23:19;;;;;;;0.55;0.10;;;14.00;67.10;;;;;;4997270;28;20045;-79
2021/05/20 01:25:47;;;;;;;0.22;0.10;;;13.90;67.10;;;;;;4976951;28;20053;-79
2021/05/20 01:28:25;;;;;;;0.22;0.10;;;13.90;67.20;;;;;;5042309;28;20380;-79
2021/05/20 01:30:51;;;;;;;5.28;0.03;;;13.80;67.30;;;;;;5009254;28;20042;-79
2021/05/20 01:33:18;;;;;;;0.17;0.00;;;13.80;68.10;;;;;;5006072;28;20216;-79
2021/05/20 01:35:47;;;;;;;0.30;0.10;;;13.80;67.40;;;;;;5005189;28;20045;-79
2021/05/20 01:38:59;;;;;;;0.00;0.00;;;13.70;67.40;;;;;;4998738;28;20037;-79
2021/05/20 01:41:02;;;;;;;0.63;0.10;;;13.70;67.50;;;;;;4995699;28;20046;-79
2021/05/20 01:43:28;;;;;;;0.10;0.00;;;13.70;67.50;;;;;;4999485;28;20048;-78
2021/05/20 01:45:58;;;;;;;0.17;0.08;;;13.70;67.60;;;;;;5024111;28;20081;-79
2021/05/20 01:48:30;;;;;;;0.13;0.00;;;13.60;67.60;;;;;;4994507;28;20042;-79
2021/05/20 01:51:04;;;;;;;1.20;0.10;;;13.60;67.60;;;;;;5006468;28;20029;-78
2021/05/20 01:53:31;;;;;;;0.30;0.10;;;13.50;67.70;;;;;;5002103;28;20057;-78
2021/05/20 01:55:57;;;;;;;2.25;0.35;;;13.50;67.70;;;;;;4997253;28;20049;-79
2021/05/20 01:58:23;;;;;;;1.33;0.52;;;13.50;67.80;;;;;;5005110;28;20042;-78
2021/05/20 02:00:49;;;;;;;0.65;0.10;;;13.40;67.70;;;;;;4993663;28;20038;-78
2021/05/20 02:03:15;;;;;;;0.10;0.00;;;13.40;67.80;;;;;;5001047;28;20375;-79
2021/05/20 02:05:41;;;;;;;0.00;0.00;;;13.40;67.90;;;;;;5002809;28;20414;-79
2021/05/20 02:08:07;;;;;;;0.10;0.00;;;13.30;67.90;;;;;;5007985;28;20038;-79
2021/05/20 02:10:33;;;;;;;0.00;0.00;;;13.30;68.00;;;;;;5012634;28;20395;-79
2021/05/20 02:12:59;;;;;;;0.22;0.00;;;13.30;68.00;;;;;;4994249;28;20041;-78
2021/05/20 02:15:25;;;;;;;0.03;0.00;;;13.30;68.10;;;;;;5009518;28;20037;-79
2021/05/20 02:17:53;;;;;;;0.00;0.00;;;13.20;68.10;;;;;;5007572;28;20045;-79
2021/05/20 02:20:20;;;;;;;1.13;0.05;;;13.20;68.10;;;;;;5007592;28;20026;-78
2021/05/20 02:22:46;;;;;;;0.25;0.00;;;13.20;68.20;;;;;;4990696;28;20033;-78
2021/05/20 02:25:13;;;;;;;0.00;0.00;;;13.10;68.10;;;;;;4994921;28;20026;-79
2021/05/20 02:27:39;;;;;;;0.10;0.00;;;13.10;68.20;;;;;;5014159;28;20394;-79
2021/05/20 02:30:05;;;;;;;2.50;0.20;;;13.10;68.30;;;;;;5008303;28;20683;-78
2021/05/20 02:32:32;;;;;;;0.20;0.13;;;13.10;68.30;;;;;;5006868;28;20372;-78
2021/05/20 02:34:58;;;;;;;0.00;0.00;;;13.10;68.30;;;;;;5012135;28;20506;-79
2021/05/20 02:37:24;;;;;;;0.00;0.00;;;13.00;68.30;;;;;;5011483;28;20025;-78
2021/05/20 02:39:50;;;;;;;0.05;0.00;;;13.00;68.40;;;;;;5023585;28;20390;-78
2021/05/20 02:42:16;;;;;;;0.00;0.00;;;13.00;68.40;;;;;;5001880;28;20030;-78
2021/05/20 02:44:42;;;;;;;0.15;0.00;;;13.00;68.50;;;;;;5008835;28;20030;-78
2021/05/20 02:47:08;;;;;;;0.20;0.03;;;13.00;68.50;;;;;;5007167;28;20042;-78
2021/05/20 02:49:34;;;;;;;0.40;0.10;;;12.90;68.40;;;;;;4993296;28;20038;-78
2021/05/20 02:52:00;;;;;;;0.30;0.20;;;12.90;68.50;;;;;;5008820;28;20037;-78
2021/05/20 02:54:26;;;;;;;0.10;0.00;;;12.90;68.60;;;;;;5000214;28;20039;-78
2021/05/20 02:56:52;;;;;;;0.43;0.00;;;12.90;68.60;;;;;;5004409;28;20034;-78
2021/05/20 02:59:19;;;;;;;0.32;0.13;;;12.90;68.60;;;;;;4997500;28;20045;-79
2021/05/20 03:01:46;;;;;;;0.22;0.00;;;12.80;68.60;;;;;;5023425;28;20038;-79
2021/05/20 03:04:12;;;;;;;0.17;0.00;;;12.80;68.60;;;;;;5008031;28;20034;-79
2021/05/20 03:06:39;;;;;;;0.75;0.15;;;12.80;68.70;;;;;;5026621;28;20062;-78
2021/05/20 03:09:07;;;;;;;0.00;0.00;;;12.80;68.70;;;;;;5018007;28;20090;-79
2021/05/20 03:11:33;;;;;;;0.20;0.10;;;12.80;68.70;;;;;;5008681;28;20036;-78
2021/05/20 03:13:59;;;;;;;0.43;0.28;;;12.70;68.80;;;;;;4994998;28;20042;-78
2021/05/20 03:16:25;;;;;;;0.10;0.10;;;12.70;69.60;;;;;;5009104;28;20044;-79
2021/05/20 03:18:51;;;;;;;0.10;0.00;;;12.70;68.80;;;;;;5011325;28;20486;-79
2021/05/20 03:21:18;;;;;;;0.05;0.00;;;12.70;68.90;;;;;;4991873;28;20041;-79
2021/05/20 03:23:44;;;;;;;0.30;0.10;;;12.70;68.90;;;;;;5010431;28;20038;-79
2021/05/20 03:26:10;;;;;;;0.28;0.05;;;12.70;68.90;;;;;;5007379;28;20030;-80
2021/05/20 03:28:36;;;;;;;0.03;0.00;;;12.60;68.80;;;;;;5007790;28;20042;-80
2021/05/20 03:31:02;;;;;;;1.65;0.32;;;12.60;69.10;;;;;;5025132;28;20026;-80
2021/05/20 03:33:28;;;;;;;0.43;0.10;;;12.60;68.90;;;;;;4994918;28;20034;-79
2021/05/20 03:35:57;;;;;;;0.25;0.20;;;12.60;68.90;;;;;;4988914;28;20053;-79
2021/05/20 03:38:23;;;;;;;1.65;0.10;;;12.60;68.90;;;;;;5007306;28;20041;-80
2021/05/20 03:40:50;;;;;;;0.88;0.40;;;12.60;69.00;;;;;;5012734;28;20053;-82
2021/05/20 03:43:16;;;;;;;0.20;0.00;;;12.50;68.90;;;;;;5009995;28;20479;-80
2021/05/20 03:45:42;;;;;;;0.65;0.20;;;12.50;69.70;;;;;;4999821;28;20030;-80
2021/05/20 03:48:08;;;;;;;0.47;0.10;;;12.50;69.00;;;;;;5000489;28;20039;-80
2021/05/20 03:50:35;;;;;;;0.47;0.30;;;12.50;69.00;;;;;;5005130;28;20030;-80
2021/05/20 03:53:01;;;;;;;0.00;0.00;;;12.40;68.90;;;;;;5005455;28;20419;-80
2021/05/20 03:55:27;;;;;;;0.00;0.00;;;12.50;69.00;;;;;;5000519;28;20038;-80
2021/05/20 03:57:53;;;;;;;1.90;0.25;;;12.40;69.10;;;;;;4995080;28;20038;-80
2021/05/20 04:00:19;;;;;;;0.10;0.00;;;12.40;69.10;;;;;;5008061;28;20382;-78
2021/05/20 04:02:45;;;;;;;0.00;0.00;;;12.40;69.20;;;;;;4991568;28;20061;-79
2021/05/20 04:05:12;;;;;;;0.30;0.10;;;12.40;69.20;;;;;;5002062;28;20026;-79
2021/05/20 04:07:38;;;;;;;0.20;0.10;;;12.30;69.20;;;;;;5013028;28;20050;-79
2021/05/20 04:10:04;;;;;;;0.10;0.00;;;12.30;69.30;;;;;;4995540;28;20022;-79
2021/05/20 04:12:31;;;;;;;0.10;0.00;;;12.20;69.20;;;;;;5041073;28;20038;-79
2021/05/20 04:14:57;;;;;;;0.00;0.00;;;12.20;69.20;;;;;;5010046;28;20038;-79
2021/05/20 04:17:23;;;;;;;0.43;0.20;;;12.20;69.30;;;;;;5022125;28;20045;-79
2021/05/20 04:19:49;;;;;;;0.85;0.25;;;12.20;69.30;;;;;;5010456;28;20038;-80
2021/05/20 04:22:15;;;;;;;1.05;0.20;;;12.20;69.30;;;;;;5010246;28;20041;-79
2021/05/20 04:24:41;;;;;;;0.00;0.00;;;12.20;69.30;;;;;;5011573;28;20049;-80
2021/05/20 04:27:07;;;;;;;0.30;0.00;;;12.20;69.30;;;;;;5039088;28;20045;-80
2021/05/20 04:29:33;;;;;;;0.10;0.00;;;12.10;69.30;;;;;;5006857;28;20030;-79
2021/05/20 04:31:59;;;;;;;0.00;0.00;;;12.10;69.50;;;;;;5009271;28;20070;-80
2021/05/20 04:34:25;;;;;;;0.20;0.03;;;12.00;69.60;;;;;;5010450;28;20033;-79
2021/05/20 04:36:51;;;;;;;0.03;0.00;;;12.00;69.60;;;;;;5010182;28;20045;-79
2021/05/20 04:39:17;;;;;;;0.47;0.08;;;12.00;69.60;;;;;;5012866;28;20036;-79
2021/05/20 04:41:43;;;;;;;1.00;0.43;;;12.00;69.60;;;;;;5010880;28;20033;-79
2021/05/20 04:44:09;;;;;;;0.20;0.08;;;12.00;69.50;;;;;;5009172;28;20041;-79
2021/05/20 04:46:36;;;;;;;0.00;0.00;;;12.00;69.50;;;;;;5010446;28;20064;-80
2021/05/20 04:49:02;;;;;;;0.00;0.00;;;12.10;69.50;;;;;;5010016;28;20033;-79
2021/05/20 04:51:29;;;;;;;0.17;0.10;;;12.10;69.50;;;;;;5040027;28;20030;-79
2021/05/20 04:53:55;;;;;;;0.20;0.10;;;12.00;69.50;;;;;;4988607;28;20057;-79
2021/05/20 04:56:24;;;;;;;0.38;0.10;;;12.00;69.50;;;;;;5005630;28;20045;-80
2021/05/20 04:58:50;;;;;;;0.22;0.10;;;12.00;69.60;;;;;;5007387;28;20030;-80
2021/05/20 05:01:16;;;;;;;1.67;0.22;;;12.00;69.50;;;;;;4994257;28;20030;-80
2021/05/20 05:03:42;;;;;;;3.90;0.30;;;12.10;69.50;;;;;;4993046;28;20048;-79
2021/05/20 05:06:08;;;;;;;0.08;0.00;;;12.10;69.50;;;;;;5038687;28;20026;-80
2021/05/20 05:08:34;;;;;;;1.45;0.17;;;12.10;69.50;;;;;;5007970;28;20494;-80
2021/05/20 05:11:00;;;;;;;0.20;0.10;;;12.10;69.50;;;;;;5008054;28;20026;-80
2021/05/20 05:13:26;;;;;;;0.20;0.00;;;12.10;69.60;;;;;;4994164;28;20502;-80
2021/05/20 05:15:54;;;;;;;1.77;0.38;;;12.10;69.50;;;;;;5010603;28;20033;-79
2021/05/20 05:18:20;;;;;;;0.17;0.17;;;12.20;69.60;;;;;;5012404;28;20025;-80
2021/05/20 05:20:46;;;;;;;0.20;0.00;;;12.20;69.50;;;;;;5009243;28;20491;-80
2021/05/20 05:23:12;;;;;;;0.20;0.10;;;12.20;69.50;;;;;;5008854;28;20052;-79
2021/05/20 05:25:38;;;;;;;0.25;0.13;;;12.20;69.70;;;;;;5010370;28;20033;-80
2021/05/20 05:28:05;;;;;;;3.13;0.10;;;12.10;69.70;;;;;;4994704;28;20053;-79
2021/05/20 05:30:31;;;;;;;0.75;0.10;;;12.10;69.80;;;;;;5031340;28;20031;-79
2021/05/20 05:32:57;;;;;;;0.20;0.00;;;12.10;69.70;;;;;;5008283;28;20037;-80
2021/05/20 05:35:23;;;;;;;0.17;0.00;;;12.20;69.70;;;;;;5009436;28;20030;-79
2021/05/20 05:37:49;;;;;;;0.15;0.10;;;12.20;69.70;;;;;;5009046;28;20049;-78
2021/05/20 05:40:15;;;;;;;0.30;0.08;;;12.30;69.70;;;;;;5008993;28;20026;-81
2021/05/20 05:42:41;;;;;;;2.45;0.28;;;12.40;69.60;;;;;;5009455;28;20478;-82
2021/05/20 05:45:08;;;;;;;0.30;0.10;;;12.40;69.40;;;;;;5029382;28;20034;-80
2021/05/20 05:47:34;;;;;;;0.20;0.00;;;12.50;69.40;;;;;;5006908;28;20038;-81
2021/05/20 05:50:06;;;;;;;2.28;0.30;;;12.50;69.30;;;;;;5007444;28;20025;-82
2021/05/20 05:52:33;;;;;;;1.73;0.20;;;12.50;69.30;;;;;;5008977;28;20045;-81
2021/05/20 05:54:59;;;;;;;0.47;0.15;;;12.60;69.40;;;;;;5009822;28;20034;-78
2021/05/20 05:57:25;;;;;;;0.20;0.00;;;12.60;69.40;;;;;;5008149;28;20045;-79
2021/05/20 05:59:51;;;;;;;0.43;0.15;;;12.60;69.30;;;;;;5009684;28;20030;-79
2021/05/20 06:02:18;;;;;;;0.50;0.35;;;12.70;69.30;;;;;;5008127;28;20034;-77
2021/05/20 06:04:47;;;;;;;0.45;0.15;;;12.80;69.20;;;;;;5010064;28;20408;-78
2021/05/20 06:07:13;;;;;;;0.10;0.00;;;12.80;69.10;;;;;;5006671;28;20042;-79
2021/05/20 06:09:39;;;;;;;1.52;0.63;;;12.90;69.10;;;;;;4973960;28;20050;-81
2021/05/20 06:12:06;;;;;;;7.45;0.17;;;12.90;69.10;;;;;;5011852;28;20034;-80
2021/05/20 06:14:32;;;;;;;0.57;0.32;;;13.00;69.10;;;;;;5004433;28;20041;-79
2021/05/20 06:16:58;;;;;;;0.55;0.20;;;13.10;69.10;;;;;;5008316;28;20041;-79
2021/05/20 06:19:24;;;;;;;0.57;0.17;;;13.10;68.90;;;;;;5009536;28;20045;-80
2021/05/20 06:21:50;;;;;;;0.90;0.43;;;13.20;68.80;;;;;;5010269;28;20391;-79
2021/05/20 06:24:16;;;;;;;0.22;0.20;;;13.40;68.60;;;;;;5008942;28;20037;-80
2021/05/20 06:26:42;;;;;;;0.47;0.20;;;13.50;68.50;;;;;;5007284;28;20493;-80
2021/05/20 06:29:08;;;;;;;0.35;0.20;;;13.60;68.30;;;;;;5008201;28;20045;-79
2021/05/20 06:31:34;;;;;;;0.10;0.00;;;13.70;68.20;;;;;;5009461;28;20037;-79
2021/05/20 06:34:01;;;;;;;1.00;0.10;;;13.80;68.10;;;;;;4992574;28;20505;-79
2021/05/20 06:36:27;;;;;;;0.20;0.00;;;14.00;68.10;;;;;;5039170;28;20026;-79
2021/05/20 06:38:53;;;;;;;0.35;0.17;;;14.00;68.00;;;;;;5008225;28;20030;-77
2021/05/20 06:41:20;;;;;;;0.68;0.20;;;14.10;68.00;;;;;;5008713;28;20041;-78
2021/05/20 06:43:46;;;;;;;1.35;0.10;;;14.10;68.00;;;;;;5005719;28;20507;-78
2021/05/20 06:46:13;;;;;;;0.00;0.00;;;14.10;68.00;;;;;;5007481;28;20038;-78
2021/05/20 06:48:39;;;;;;;1.00;0.10;;;14.10;68.10;;;;;;4996883;28;20052;-77
2021/05/20 06:51:05;;;;;;;3.38;0.17;;;14.20;68.20;;;;;;5022525;28;20034;-77
2021/05/20 06:53:32;;;;;;;0.43;0.13;;;14.10;68.20;;;;;;5023337;28;20403;-77
2021/05/20 06:56:01;;;;;;;0.55;0.20;;;14.10;68.20;;;;;;5008672;28;20388;-77
2021/05/20 07:01:11;;;;;;;0.15;0.10;;;14.20;68.20;;;;;;5002679;28;20068;-79
2021/05/20 07:03:38;;;;;;;0.45;0.08;;;14.30;68.20;;;;;;4997704;28;20030;-78
2021/05/20 07:06:04;;;;;;;1.13;0.70;;;14.30;68.10;;;;;;5013192;28;20053;-79
2021/05/20 07:08:30;;;;;;;0.20;0.10;;;14.40;68.10;;;;;;5028419;28;20046;-78
2021/05/20 07:10:57;;;;;;;1.35;0.10;;;14.50;68.90;;;;;;5008528;28;20035;-79
2021/05/20 07:13:23;;;;;;;0.73;0.28;;;14.50;68.00;;;;;;5010951;28;20057;-78
2021/05/20 07:15:49;;;;;;;0.25;0.00;;;14.60;67.80;;;;;;5011812;28;20041;-77
2021/05/20 07:18:16;;;;;;;0.10;0.10;;;14.70;67.70;;;;;;4999428;28;20042;-77
2021/05/20 07:20:42;;;;;;;1.40;0.28;;;14.90;67.70;;;;;;5007041;28;20022;-77
2021/05/20 07:23:12;;;;;;;0.10;0.05;;;15.00;67.50;;;;;;5006830;28;20053;-78
2021/05/20 07:25:39;;;;;;;0.47;0.17;;;15.20;67.30;;;;;;5007099;28;20030;-78
2021/05/20 07:28:05;;;;;;;0.55;0.25;;;15.30;67.20;;;;;;4980854;28;20038;-78
2021/05/20 07:30:31;;;;;;;0.10;0.00;;;15.30;67.00;;;;;;4999463;28;20049;-79
2021/05/20 07:32:58;;;;;;;0.05;0.00;;;15.40;67.00;;;;;;5007886;28;20029;-81
2021/05/20 07:35:24;;;;;;;0.75;0.05;;;15.40;67.00;;;;;;5008228;28;20030;-82
2021/05/20 07:37:50;;;;;;;0.10;0.03;;;15.50;67.20;;;;;;5007782;28;20399;-78
2021/05/20 07:40:18;;;;;;;0.25;0.10;;;15.60;67.20;;;;;;5012746;28;20037;-79
2021/05/20 07:42:44;;;;;;;0.17;0.00;;;15.70;67.00;;;;;;5025873;28;20472;-79
2021/05/20 07:45:11;;;;;;;0.03;0.00;;;15.80;66.80;;;;;;4990663;28;20065;-78
2021/05/20 07:47:38;;;;;;;0.40;0.08;;;15.90;66.70;;;;;;5004522;28;20050;-79
2021/05/20 07:50:05;;;;;;;6.80;0.32;;;16.00;66.80;;;;;;5017965;28;20022;-80
2021/05/20 07:52:31;;;;;;;0.00;0.00;;;16.00;66.80;;;;;;4991502;28;20476;-80
2021/05/20 07:54:57;;;;;;;0.68;0.15;;;16.10;66.90;;;;;;5026933;28;20388;-80
2021/05/20 07:57:24;;;;;;;0.32;0.08;;;16.20;66.70;;;;;;5010076;28;20030;-78
2021/05/20 07:59:52;;;;;;;0.52;0.00;;;16.40;66.60;;;;;;5008383;28;20032;-78
2021/05/20 08:02:34;;;;;;;0.22;0.10;;;16.50;66.40;;;;;;5006079;28;20026;-78
2021/05/20 08:05:06;;;;;;;0.70;0.30;;;16.60;66.20;;;;;;4999678;28;20045;-81
2021/05/20 08:07:49;;;;;;;0.63;0.15;;;16.80;65.90;;;;;;5008499;28;20113;-80
2021/05/20 08:12:44;;;;;;;0.00;0.00;;;17.20;65.50;;;;;;5017048;28;20041;-80
2021/05/20 08:15:10;;;;;;;0.00;0.00;;;17.30;65.20;;;;;;5007836;28;20037;-79
2021/05/20 08:17:37;;;;;;;0.22;0.00;;;17.40;65.10;;;;;;5006020;28;20372;-79
2021/05/20 08:20:04;;;;;;;0.30;0.10;;;17.40;65.10;;;;;;4988697;28;20455;-79
2021/05/20 08:22:30;;;;;;;0.35;0.10;;;17.50;65.10;;;;;;5011188;28;20486;-80
2021/05/20 08:24:59;;;;;;;1.83;0.13;;;17.50;65.10;;;;;;4993296;28;20419;-79
2021/05/20 08:27:25;;;;;;;0.20;0.00;;;17.50;65.00;;;;;;5028054;28;20057;-77
2021/05/20 08:29:51;;;;;;;0.05;0.00;;;17.50;65.00;;;;;;5033538;28;20045;-80
2021/05/20 08:32:18;;;;;;;0.17;0.00;;;17.50;65.10;;;;;;5006608;28;20411;-80
2021/05/20 08:34:44;;;;;;;0.30;0.00;;;17.40;65.10;;;;;;4997649;28;20041;-78
2021/05/20 08:37:10;;;;;;;0.40;0.28;;;17.40;65.10;;;;;;4993081;28;20038;-77
2021/05/20 08:39:36;;;;;;;0.00;0.00;;;17.40;65.00;;;;;;5009031;28;20030;-76
2021/05/20 08:42:03;;;;;;;0.73;0.10;;;17.40;64.90;;;;;;5010732;28;20380;-79
2021/05/20 08:44:29;;;;;;;0.00;0.00;;;17.50;64.80;;;;;;5007152;28;20056;-78
2021/05/20 08:46:57;;;;;;;0.22;0.00;;;17.50;64.70;;;;;;5001300;28;20042;-79
2021/05/20 08:49:24;;;;;;;1.02;0.17;;;17.60;64.70;;;;;;5003395;28;20050;-79
2021/05/20 08:51:51;;;;;;;0.15;0.00;;;17.60;64.50;;;;;;5043999;28;20356;-79
2021/05/20 08:54:17;;;;;;;0.10;0.00;;;17.70;64.50;;;;;;5037172;28;20042;-80
2021/05/20 08:56:48;;;;;;;0.43;0.20;;;17.70;64.20;;;;;;5001378;28;20037;-77
2021/05/20 08:59:14;;;;;;;0.00;0.00;;;17.80;64.10;;;;;;5006457;28;20030;-77
2021/05/20 09:01:42;;;;;;;0.00;0.00;;;17.90;63.80;;;;;;5004288;28;20502;-78
2021/05/20 09:04:08;;;;;;;0.00;0.00;;;18.10;63.50;;;;;;4977704;28;20039;-78
2021/05/20 09:06:43;;;;;;;0.03;0.00;;;18.20;63.20;;;;;;5006595;28;20387;-78
2021/05/20 09:09:14;;;;;;;0.88;0.15;;;18.30;63.00;;;;;;4998057;28;20045;-78
2021/05/20 09:11:48;;;;;;;0.45;0.10;;;18.40;63.00;;;;;;5004004;28;20026;-79
2021/05/20 09:14:29;;;;;;;2.17;0.00;;;18.50;62.70;;;;;;5000400;28;20030;-80
2021/05/20 09:17:15;;;;;;;;;;;18.70;62.30;;;;;;5002077;28;20402;-78
2021/05/20 09:19:43;;;;;;;0.00;0.00;;;18.90;61.90;;;;;;5008027;28;19917;-79
2021/05/20 09:22:11;;;;;;;0.00;0.00;;;19.20;61.40;;;;;;5010562;28;20466;-78
2021/05/20 09:24:58;;;;;;;0.15;0.00;;;19.30;61.00;;;;;;4996602;28;20026;-79
2021/05/20 09:27:24;;;;;;;0.00;0.00;;;19.40;60.70;;;;;;5006716;28;20022;-80
2021/05/20 09:30:08;;;;;;;0.00;0.00;;;19.50;60.60;;;;;;5008569;28;20042;-79
2021/05/20 09:32:39;;;;;;;1.25;0.15;;;19.40;60.40;;;;;;5006557;28;20498;-86
2021/05/20 09:35:05;;;;;;;;;;;19.40;60.60;;;;;;5007219;28;20031;-87
2021/05/20 09:37:33;;;;;;;0.13;0.00;;;19.40;60.60;;;;;;5003841;28;19910;-79
2021/05/20 09:40:00;;;;;;;0.22;0.00;;;19.40;60.50;;;;;;5008178;28;20041;-78
2021/05/20 09:42:30;;;;;;;0.00;0.00;;;19.50;60.20;;;;;;5009411;28;20466;-79
2021/05/20 09:45:10;;;;;;;2.00;0.10;;;19.60;60.00;;;;;;5002153;28;20391;-80
2021/05/20 09:47:36;;;;;;;0.00;0.00;;;19.80;59.80;;;;;;5033302;28;20478;-80
2021/05/20 09:50:12;;;;;;;0.47;0.00;;;19.90;59.40;;;;;;4999190;28;20046;-78
2021/05/20 09:52:39;;;;;;;0.00;0.00;;;20.10;59.10;;;;;;5007647;28;20042;-78
2021/05/20 09:55:17;;;;;;;0.00;0.00;;;20.20;58.80;;;;;;4994101;28;20382;-78
2021/05/20 09:57:44;;;;;;;0.17;0.00;;;20.20;58.50;;;;;;4997325;28;20041;-78
2021/05/20 10:00:11;;;;;;;0.00;0.00;;;20.30;58.40;;;;;;5005033;28;20037;-78
2021/05/20 10:02:39;;;;;;;0.00;0.00;;;20.30;58.30;;;;;;5000684;28;20412;-79
2021/05/20 10:05:32;;;;;;;0.00;0.00;;;20.40;58.10;;;;;;5005756;28;20021;-79
2021/05/20 10:08:00;;;;;;;0.00;0.00;;;20.50;57.90;;;;;;5025888;28;20046;-80
2021/05/20 10:10:26;;;;;;;1.40;0.00;;;20.70;57.70;;;;;;5001940;28;20036;-80
2021/05/20 10:12:52;;;;;;;0.00;0.00;;;20.90;57.30;;;;;;4994231;28;20399;-79
2021/05/20 10:15:23;;;;;;;0.10;0.00;;;21.10;57.10;;;;;;5005590;28;20048;-80
2021/05/20 10:17:49;;;;;;;0.00;0.00;;;21.30;56.70;;;;;;5006791;28;20368;-81
2021/05/20 10:20:21;;;;;;;0.13;0.00;;;21.50;56.40;;;;;;5005448;28;20057;-92
2021/05/20 10:22:49;;;;;;;0.00;0.00;;;21.60;56.10;;;;;;5009553;28;20026;-80
2021/05/20 10:25:15;;;;;;;0.00;0.00;;;21.50;56.00;;;;;;5010587;28;20501;-81
2021/05/20 10:27:41;;;;;;;0.10;0.00;;;21.50;55.90;;;;;;5016935;28;20030;-79
2021/05/20 10:30:10;;;;;;;0.00;0.00;;;21.40;55.90;;;;;;5013636;28;20045;-80
2021/05/20 10:32:37;;;;;;;0.00;0.00;;;21.30;56.00;;;;;;5008435;28;20043;-80
2021/05/20 10:35:11;;;;;;;0.38;0.00;;;21.30;56.70;;;;;;4996837;28;20026;-80
2021/05/20 10:37:41;;;;;;;0.00;0.00;;;21.30;56.10;;;;;;5001340;28;20037;-80
2021/05/20 10:40:08;;;;;;;0.45;0.00;;;21.30;55.80;;;;;;5031134;28;20379;-80
2021/05/20 10:42:44;;;;;;;0.00;0.00;;;21.40;55.70;;;;;;5010476;28;20046;-79
2021/05/20 10:45:18;;;;;;;0.08;0.00;;;21.50;55.50;;;;;;5007085;28;20046;-79
2021/05/20 10:48:03;;;;;;;0.00;0.00;;;21.50;55.20;;;;;;5017151;28;20034;-80
2021/05/20 10:50:54;;;;;;;0.00;0.00;;;21.50;55.00;;;;;;5004311;28;20034;-79
2021/05/20 10:53:41;;;;;;;1.00;0.38;;;21.40;55.00;;;;;;5013184;28;20042;-80
2021/05/20 10:56:08;;;;;;;0.00;0.00;;;21.40;55.10;;;;;;5004632;28;20057;-79
2021/05/20 10:58:36;;;;;;;0.00;0.00;;;21.30;55.10;;;;;;5019736;28;20053;-80
2021/05/20 11:01:06;;;;;;;0.00;0.00;;;21.30;55.10;;;;;;5007113;28;20030;-78
2021/05/20 11:03:54;;;;;;;0.10;0.00;;;21.30;55.00;;;;;;5014551;28;20030;-77
2021/05/20 11:06:24;;;;;;;0.00;0.00;;;21.30;54.80;;;;;;5007044;28;20501;-78
2021/05/20 11:08:52;;;;;;;0.00;0.00;;;21.30;54.70;;;;;;5043519;28;20046;-78
2021/05/20 11:11:21;;;;;;;0.00;0.00;;;21.40;54.50;;;;;;5002790;28;20057;-79
2021/05/20 11:13:47;;;;;;;0.00;0.00;;;21.30;54.30;;;;;;5029085;28;20037;-81
2021/05/20 11:16:27;;;;;;;0.10;0.00;;;21.30;54.30;;;;;;5007070;28;20033;-80
2021/05/20 11:18:54;;;;;;;0.00;0.00;;;21.30;54.30;;;;;;5012470;28;20030;-79
2021/05/20 11:21:20;;;;;;;13.90;0.35;;;21.30;54.30;;;;;;5009218;28;20470;-81
2021/05/20 11:23:46;;;;;;;0.10;0.00;;;21.30;54.20;;;;;;5011161;28;20038;-81
2021/05/20 11:26:16;;;;;;;0.00;0.00;;;21.40;54.00;;;;;;5008477;28;20089;-80
2021/05/20 11:28:55;;;;;;;0.00;0.00;;;21.50;53.90;;;;;;5006847;28;20066;-80
2021/05/20 11:31:22;;;;;;;0.03;0.00;;;21.70;53.50;;;;;;4994847;28;20109;-80
2021/05/20 11:36:43;;;;;;;0.20;0.00;;;21.70;53.00;;;;;;4996864;28;20049;-80
2021/05/20 11:39:13;;;;;;;0.08;0.00;;;21.70;53.00;;;;;;5034112;28;20033;-80
2021/05/20 11:41:42;;;;;;;1.05;0.00;;;21.60;53.00;;;;;;5003348;28;20399;-79
2021/05/20 11:44:14;;;;;;;0.00;0.00;;;21.50;53.00;;;;;;5006545;28;20037;-80
2021/05/20 11:46:42;;;;;;;0.00;0.00;;;21.60;53.00;;;;;;5011045;28;20026;-79
2021/05/20 11:49:18;;;;;;;0.08;0.00;;;21.70;52.80;;;;;;5011785;28;20034;-80
2021/05/20 11:51:48;;;;;;;1.75;0.68;;;21.80;52.60;;;;;;5007320;28;20038;-91
2021/05/20 11:54:15;;;;;;;3.63;0.53;;;21.80;52.50;;;;;;5013885;28;20042;-90
2021/05/20 11:56:48;;;;;;;0.50;0.20;;;21.80;52.40;;;;;;5036614;28;20034;-87
2021/05/20 11:59:15;;;;;;;0.00;0.00;;;21.70;52.40;;;;;;5001154;28;20033;-90
2021/05/20 12:01:45;;;;;;;0.20;0.00;;;21.60;52.50;;;;;;5039528;28;20053;-87
2021/05/20 12:04:11;;;;;;;0.43;0.32;;;21.50;52.50;;;;;;5030832;28;20034;-89
2021/05/20 12:06:37;;;;;;;0.20;0.00;;;21.40;52.50;;;;;;4991105;28;20046;-90
2021/05/20 12:09:04;;;;;;;1.10;0.45;;;21.50;52.40;;;;;;5005566;28;20062;-85
2021/05/20 12:11:30;;;;;;;0.43;0.03;;;21.40;52.30;;;;;;5011354;28;20029;-87
2021/05/20 12:13:56;;;;;;;2.17;0.10;;;21.40;52.30;;;;;;5006305;28;20041;-80
2021/05/20 12:16:33;;;;;;;0.30;0.00;;;21.30;52.30;;;;;;5010503;28;20026;-80
2021/05/20 12:18:59;;;;;;;0.00;0.00;;;21.30;52.20;;;;;;5005103;28;20042;-80
2021/05/20 12:21:26;;;;;;;0.00;0.00;;;21.20;52.20;;;;;;5011133;28;20022;-79
2021/05/20 12:23:55;;;;;;;0.30;0.20;;;21.20;52.30;;;;;;5008603;28;20121;-80
2021/05/20 12:26:25;;;;;;;0.00;0.00;;;21.20;52.30;;;;;;5010884;28;20037;-79
2021/05/20 12:28:51;;;;;;;0.85;0.10;;;21.20;52.40;;;;;;5035334;28;20045;-80
2021/05/20 12:31:19;;;;;;;0.00;0.00;;;21.20;52.30;;;;;;4995168;28;20060;-79
2021/05/20 12:33:46;;;;;;;0.10;0.00;;;21.20;52.30;;;;;;5024224;28;20042;-79
2021/05/20 12:36:31;;;;;;;0.00;0.00;;;21.20;52.20;;;;;;5007128;28;20053;-79
2021/05/20 12:38:58;;;;;;;5.18;0.10;;;21.20;52.10;;;;;;4987897;28;20034;-81
2021/05/20 12:41:34;;;;;;;0.08;0.08;;;21.20;52.00;;;;;;4999880;28;20030;-80
2021/05/20 12:44:16;;;;;;;0.10;0.00;;;21.20;51.90;;;;;;5010612;28;20033;-80
2021/05/20 12:46:43;;;;;;;6.22;0.55;;;21.20;51.80;;;;;;5008412;28;20495;-81
2021/05/20 12:49:09;;;;;;;0.00;0.00;;;21.20;51.80;;;;;;5009496;28;20054;-80
2021/05/20 12:51:35;;;;;;;0.00;0.00;;;21.20;51.80;;;;;;5039005;28;20403;-80
2021/05/20 12:54:07;;;;;;;0.00;0.00;;;21.30;51.80;;;;;;5025902;28;20054;-80
2021/05/20 12:56:41;;;;;;;0.17;0.00;;;21.30;51.60;;;;;;5003946;28;20022;-80
2021/05/20 12:59:14;;;;;;;0.00;0.00;;;21.30;51.60;;;;;;5000265;28;20786;-80